Time;durP1;ratioP1;P1;durP2;ratioP2;P2;SDS_P1;SDS_P2;PMS_P1;PMS_P2;Temp;Humidity;BMP_temperature;BMP_pressure;BME280_temperature;BME280_humidity;BME280_pressure;Samples;Min_cycle;Max_cycle;Signal;HPM_P1;HPM_P2
2021/10/06 00:01:08;;;;;;;2.47;1.20;;;;;;;;;;5118330;28;20209;-63
2021/10/06 00:03:36;;;;;;;6.03;1.13;;;;;;;;;;5118520;28;20205;-62
2021/10/06 00:06:04;;;;;;;2.77;0.80;;;;;;;;;;5118448;28;20205;-63
2021/10/06 00:08:32;;;;;;;2.13;1.20;;;;;;;;;;5118175;28;20664;-62
2021/10/06 00:11:00;;;;;;;3.83;0.97;;;;;;;;;;5118214;28;20211;-62
2021/10/06 00:13:28;;;;;;;3.80;0.80;;;;;;;;;;5118062;28;20240;-63
2021/10/06 00:15:56;;;;;;;2.80;1.03;;;;;;;;;;5118467;28;20291;-65
2021/10/06 00:18:26;;;;;;;3.87;1.00;;;;;;;;;;5118156;28;20209;-62
2021/10/06 00:20:54;;;;;;;2.43;0.97;;;;;;;;;;5118313;28;20209;-63
2021/10/06 00:23:22;;;;;;;1.60;1.20;;;;;;;;;;5118518;28;20232;-62
2021/10/06 00:25:50;;;;;;;3.60;0.90;;;;;;;;;;5117950;28;20568;-63
2021/10/06 00:28:18;;;;;;;3.03;1.43;;;;;;;;;;5117092;28;20660;-63
2021/10/06 00:30:46;;;;;;;2.73;1.00;;;;;;;;;;5118005;28;20695;-62
2021/10/06 00:33:14;;;;;;;1.73;0.93;;;;;;;;;;5118164;28;20204;-62
2021/10/06 00:35:43;;;;;;;2.20;1.10;;;;;;;;;;5117921;28;20341;-62
2021/10/06 00:38:11;;;;;;;2.27;0.93;;;;;;;;;;5118148;28;20209;-62
2021/10/06 00:40:39;;;;;;;2.30;1.07;;;;;;;;;;5118221;28;20210;-62
2021/10/06 00:43:07;;;;;;;4.50;1.40;;;;;;;;;;5119847;28;20292;-62
2021/10/06 00:45:35;;;;;;;2.17;1.10;;;;;;;;;;5118875;28;20228;-63
2021/10/06 00:48:04;;;;;;;1.70;1.10;;;;;;;;;;5117643;28;20213;-63
2021/10/06 00:50:32;;;;;;;2.73;0.80;;;;;;;;;;5117918;28;20729;-63
2021/10/06 00:53:01;;;;;;;2.73;0.93;;;;;;;;;;5117787;28;20197;-62
2021/10/06 00:55:29;;;;;;;1.33;0.90;;;;;;;;;;5117691;28;20683;-63
2021/10/06 00:57:57;;;;;;;1.83;1.00;;;;;;;;;;5117412;28;20288;-63
2021/10/06 01:00:25;;;;;;;2.17;1.13;;;;;;;;;;5117760;28;20201;-63
2021/10/06 01:02:53;;;;;;;4.27;1.20;;;;;;;;;;5117600;28;20402;-63
2021/10/06 01:05:22;;;;;;;1.90;1.10;;;;;;;;;;5117612;28;20221;-63
2021/10/06 01:07:50;;;;;;;3.47;1.20;;;;;;;;;;5117775;28;20682;-62
2021/10/06 01:10:19;;;;;;;2.70;1.00;;;;;;;;;;5117689;28;20678;-63
2021/10/06 01:12:48;;;;;;;2.77;0.97;;;;;;;;;;5117691;28;20203;-63
2021/10/06 01:15:16;;;;;;;3.53;1.10;;;;;;;;;;5117941;28;20733;-63
2021/10/06 01:17:44;;;;;;;7.53;1.30;;;;;;;;;;5117942;28;20207;-63
2021/10/06 01:20:12;;;;;;;1.87;1.00;;;;;;;;;;5117872;28;20329;-63
2021/10/06 01:22:41;;;;;;;2.57;1.03;;;;;;;;;;5117908;28;20231;-63
2021/10/06 01:25:11;;;;;;;4.70;1.50;;;;;;;;;;5117812;28;20221;-63
2021/10/06 01:27:39;;;;;;;2.27;1.30;;;;;;;;;;5117263;28;20209;-63
2021/10/06 01:30:08;;;;;;;4.87;1.83;;;;;;;;;;5117511;28;20659;-63
2021/10/06 01:32:37;;;;;;;3.90;1.40;;;;;;;;;;5117596;28;20205;-63
2021/10/06 01:35:06;;;;;;;0.73;0.73;;;;;;;;;;5117589;28;20228;-63
2021/10/06 01:37:34;;;;;;;1.67;0.70;;;;;;;;;;5117470;28;20220;-63
2021/10/06 01:40:05;;;;;;;2.23;1.40;;;;;;;;;;5118161;28;20567;-63
2021/10/06 01:42:33;;;;;;;5.50;2.67;;;;;;;;;;5120804;28;20224;-63
2021/10/06 01:45:01;;;;;;;4.90;1.27;;;;;;;;;;5121206;28;20233;-63
2021/10/06 01:47:29;;;;;;;3.83;1.30;;;;;;;;;;5121137;28;20201;-63
2021/10/06 01:49:57;;;;;;;2.90;1.10;;;;;;;;;;5120604;28;20204;-64
2021/10/06 01:52:25;;;;;;;3.03;1.03;;;;;;;;;;5120966;28;20205;-63
2021/10/06 01:54:54;;;;;;;3.20;1.17;;;;;;;;;;5121079;28;20320;-63
2021/10/06 01:57:23;;;;;;;5.23;1.80;;;;;;;;;;5120844;28;20209;-62
2021/10/06 01:59:51;;;;;;;5.07;1.07;;;;;;;;;;5121453;28;20209;-63
2021/10/06 02:02:19;;;;;;;2.80;1.10;;;;;;;;;;5120454;28;20581;-62
2021/10/06 02:04:47;;;;;;;4.07;1.00;;;;;;;;;;5120785;28;20227;-63
2021/10/06 02:07:15;;;;;;;2.27;1.00;;;;;;;;;;5120655;28;20201;-63
2021/10/06 02:09:43;;;;;;;4.03;0.97;;;;;;;;;;5120770;28;20208;-63
2021/10/06 02:12:11;;;;;;;3.37;1.00;;;;;;;;;;5120399;28;20213;-63
2021/10/06 02:14:40;;;;;;;3.47;1.40;;;;;;;;;;5120582;27;20233;-63
2021/10/06 02:17:08;;;;;;;3.07;1.53;;;;;;;;;;5120485;28;20204;-63
2021/10/06 02:19:36;;;;;;;3.57;1.27;;;;;;;;;;5120673;28;20211;-63
2021/10/06 02:22:04;;;;;;;3.13;1.17;;;;;;;;;;5120419;28;20209;-63
2021/10/06 02:24:32;;;;;;;3.10;1.33;;;;;;;;;;5120363;28;20223;-63
2021/10/06 02:27:00;;;;;;;2.47;1.10;;;;;;;;;;5120031;28;20219;-63
2021/10/06 02:29:28;;;;;;;3.33;1.23;;;;;;;;;;5120269;28;20211;-63
2021/10/06 02:31:57;;;;;;;0.83;0.83;;;;;;;;;;5120205;28;20205;-63
2021/10/06 02:34:25;;;;;;;1.60;1.00;;;;;;;;;;5120097;28;20244;-63
2021/10/06 02:36:53;;;;;;;2.10;0.80;;;;;;;;;;5120344;28;20210;-63
2021/10/06 02:39:21;;;;;;;4.70;1.33;;;;;;;;;;5120132;27;20219;-63
2021/10/06 02:41:49;;;;;;;5.60;1.40;;;;;;;;;;5119933;28;20205;-63
2021/10/06 02:44:20;;;;;;;1.77;1.17;;;;;;;;;;5119684;28;20225;-63
2021/10/06 02:46:48;;;;;;;2.87;1.20;;;;;;;;;;5119906;28;20706;-63
2021/10/06 02:49:18;;;;;;;5.13;1.43;;;;;;;;;;5120061;28;20211;-63
2021/10/06 02:51:46;;;;;;;4.93;1.23;;;;;;;;;;5118882;28;20757;-63
2021/10/06 02:54:14;;;;;;;5.47;1.63;;;;;;;;;;5119265;28;20229;-63
2021/10/06 02:56:42;;;;;;;3.27;0.97;;;;;;;;;;5119417;28;20589;-63
2021/10/06 02:59:10;;;;;;;3.27;1.20;;;;;;;;;;5119936;28;20564;-63
2021/10/06 03:01:38;;;;;;;2.90;1.53;;;;;;;;;;5119774;28;20209;-62
2021/10/06 03:04:06;;;;;;;4.37;1.20;;;;;;;;;;5119514;28;20260;-63
2021/10/06 03:06:35;;;;;;;2.50;1.20;;;;;;;;;;5119686;28;20211;-63
2021/10/06 03:09:04;;;;;;;4.57;1.63;;;;;;;;;;5119287;28;20570;-63
2021/10/06 03:11:31;;;;;;;2.90;1.03;;;;;;;;;;5119395;28;20209;-63
2021/10/06 03:14:00;;;;;;;5.00;1.50;;;;;;;;;;5119554;28;20255;-63
2021/10/06 03:16:28;;;;;;;3.13;1.07;;;;;;;;;;5119449;28;20209;-62
2021/10/06 03:18:56;;;;;;;2.87;1.30;;;;;;;;;;5119125;28;20210;-63
2021/10/06 03:21:23;;;;;;;5.30;1.10;;;;;;;;;;5119057;28;20664;-62
2021/10/06 03:23:53;;;;;;;1.73;1.00;;;;;;;;;;5119215;28;20239;-63
2021/10/06 03:26:21;;;;;;;2.30;1.00;;;;;;;;;;5111766;28;20209;-63
2021/10/06 03:28:49;;;;;;;2.00;1.10;;;;;;;;;;5119041;28;20205;-63
2021/10/06 03:31:17;;;;;;;2.13;0.87;;;;;;;;;;5118832;28;20205;-63
2021/10/06 03:33:45;;;;;;;2.57;1.03;;;;;;;;;;5119296;28;20201;-63
2021/10/06 03:36:13;;;;;;;4.63;1.57;;;;;;;;;;5119167;28;20258;-63
2021/10/06 03:38:41;;;;;;;3.87;1.07;;;;;;;;;;5119022;28;20212;-63
2021/10/06 03:41:10;;;;;;;3.43;1.20;;;;;;;;;;5118660;28;20652;-63
2021/10/06 03:43:38;;;;;;;5.93;1.33;;;;;;;;;;5118569;28;20571;-62
2021/10/06 03:46:06;;;;;;;1.87;1.17;;;;;;;;;;5118889;28;20205;-63
2021/10/06 03:48:34;;;;;;;1.93;1.07;;;;;;;;;;5118985;28;20205;-62
2021/10/06 03:51:02;;;;;;;1.00;0.80;;;;;;;;;;5118685;28;20229;-63
2021/10/06 03:53:30;;;;;;;8.90;5.90;;;;;;;;;;5118323;28;20207;-63
2021/10/06 03:55:58;;;;;;;3.43;2.57;;;;;;;;;;5118614;28;20205;-63
2021/10/06 03:58:28;;;;;;;4.23;1.23;;;;;;;;;;5118465;28;20204;-63
2021/10/06 04:00:56;;;;;;;1.30;1.20;;;;;;;;;;5118116;28;20208;-63
2021/10/06 04:03:24;;;;;;;3.63;1.27;;;;;;;;;;5118291;28;20240;-63
2021/10/06 04:05:52;;;;;;;5.20;1.20;;;;;;;;;;5118388;28;20755;-63
2021/10/06 04:08:20;;;;;;;1.80;1.67;;;;;;;;;;5118714;28;20205;-61
2021/10/06 04:10:48;;;;;;;5.00;1.40;;;;;;;;;;5118439;28;20209;-61
2021/10/06 04:13:16;;;;;;;2.70;1.53;;;;;;;;;;5118044;28;20213;-62
2021/10/06 04:15:45;;;;;;;1.60;0.90;;;;;;;;;;5103764;28;20227;-63
2021/10/06 04:18:14;;;;;;;2.23;1.07;;;;;;;;;;5102316;28;20220;-62
2021/10/06 04:20:41;;;;;;;0.70;0.70;;;;;;;;;;5104317;28;20207;-61
2021/10/06 04:23:10;;;;;;;5.80;1.47;;;;;;;;;;5106329;28;20201;-62
2021/10/06 04:25:41;;;;;;;1.90;0.93;;;;;;;;;;5105347;28;20248;-61
2021/10/06 04:28:09;;;;;;;2.30;0.97;;;;;;;;;;5103985;28;20201;-61
2021/10/06 04:30:37;;;;;;;4.33;1.30;;;;;;;;;;5114929;27;20204;-61
2021/10/06 04:33:06;;;;;;;1.20;1.10;;;;;;;;;;5138677;27;20210;-60
2021/10/06 04:35:34;;;;;;;4.43;1.10;;;;;;;;;;5138857;27;20224;-61
2021/10/06 04:38:02;;;;;;;3.13;1.20;;;;;;;;;;5138554;27;20250;-61
2021/10/06 04:40:30;;;;;;;3.23;1.57;;;;;;;;;;5138736;27;20220;-61
2021/10/06 04:42:58;;;;;;;1.80;0.90;;;;;;;;;;5138497;27;20204;-61
2021/10/06 04:45:27;;;;;;;3.60;1.13;;;;;;;;;;5138420;27;20598;-61
2021/10/06 04:47:54;;;;;;;2.20;1.17;;;;;;;;;;5138400;27;20207;-61
2021/10/06 04:50:27;;;;;;;3.10;1.23;;;;;;;;;;5125681;27;20232;-61
2021/10/06 04:52:55;;;;;;;2.93;1.20;;;;;;;;;;5118222;28;20204;-62
2021/10/06 04:55:23;;;;;;;3.07;1.03;;;;;;;;;;5117891;28;20225;-62
2021/10/06 04:57:53;;;;;;;2.67;1.27;;;;;;;;;;5117902;28;20204;-62
2021/10/06 05:00:21;;;;;;;3.83;1.97;;;;;;;;;;5117898;28;20223;-62
2021/10/06 05:02:49;;;;;;;2.33;1.40;;;;;;;;;;5117667;28;20574;-62
2021/10/06 05:05:17;;;;;;;2.53;1.50;;;;;;;;;;5111661;28;20247;-62
2021/10/06 05:07:47;;;;;;;5.30;1.60;;;;;;;;;;5104358;28;20209;-62
2021/10/06 05:10:15;;;;;;;2.73;1.30;;;;;;;;;;5105813;28;20203;-62
2021/10/06 05:12:43;;;;;;;2.27;1.40;;;;;;;;;;5103802;28;20197;-62
2021/10/06 05:15:11;;;;;;;8.10;1.70;;;;;;;;;;5116023;28;20288;-62
2021/10/06 05:17:39;;;;;;;1.30;1.20;;;;;;;;;;5122087;28;20215;-61
2021/10/06 05:20:07;;;;;;;4.40;1.60;;;;;;;;;;5122134;27;20208;-62
2021/10/06 05:22:35;;;;;;;6.03;1.77;;;;;;;;;;5122482;28;20200;-62
2021/10/06 05:25:05;;;;;;;2.77;1.57;;;;;;;;;;5121730;27;20228;-62
2021/10/06 05:27:33;;;;;;;3.27;1.57;;;;;;;;;;5121312;27;20601;-62
2021/10/06 05:30:01;;;;;;;7.80;1.80;;;;;;;;;;5121564;28;20215;-61
2021/10/06 05:32:29;;;;;;;5.83;1.40;;;;;;;;;;5113077;27;20208;-61
2021/10/06 05:34:57;;;;;;;6.23;1.37;;;;;;;;;;5108953;28;20221;-61
2021/10/06 05:37:25;;;;;;;4.67;1.73;;;;;;;;;;5121287;28;20268;-61
2021/10/06 05:39:53;;;;;;;4.27;1.40;;;;;;;;;;5120905;27;20211;-61
2021/10/06 05:42:23;;;;;;;3.63;1.23;;;;;;;;;;5120700;27;20287;-61
2021/10/06 05:44:50;;;;;;;4.60;1.87;;;;;;;;;;5120509;27;20231;-61
2021/10/06 05:47:18;;;;;;;1.57;1.30;;;;;;;;;;5120865;28;20571;-61
2021/10/06 05:49:46;;;;;;;5.00;1.53;;;;;;;;;;5120625;28;20557;-61
2021/10/06 05:52:14;;;;;;;5.33;2.03;;;;;;;;;;5120765;28;20239;-61
2021/10/06 05:54:42;;;;;;;4.70;1.67;;;;;;;;;;5121012;28;20252;-61
2021/10/06 05:57:10;;;;;;;2.80;1.70;;;;;;;;;;5120918;28;20208;-62
2021/10/06 05:59:40;;;;;;;7.13;1.67;;;;;;;;;;5121372;28;20215;-61
2021/10/06 06:02:08;;;;;;;3.30;1.80;;;;;;;;;;5120513;28;20662;-61
2021/10/06 06:04:36;;;;;;;5.07;2.10;;;;;;;;;;5121039;28;20235;-61
2021/10/06 06:07:05;;;;;;;2.97;1.57;;;;;;;;;;5120577;28;20614;-61
2021/10/06 06:09:33;;;;;;;8.17;2.03;;;;;;;;;;5120851;28;20243;-61
2021/10/06 06:12:01;;;;;;;2.00;1.27;;;;;;;;;;5120382;28;20204;-61
2021/10/06 06:14:29;;;;;;;5.80;2.70;;;;;;;;;;5121095;28;20234;-61
2021/10/06 06:16:59;;;;;;;4.33;1.87;;;;;;;;;;5120388;28;20686;-61
2021/10/06 06:19:27;;;;;;;2.33;1.70;;;;;;;;;;5120516;28;20200;-61
2021/10/06 06:21:54;;;;;;;3.87;1.70;;;;;;;;;;5120669;28;20209;-61
2021/10/06 06:24:22;;;;;;;2.43;1.60;;;;;;;;;;5120497;28;20219;-61
2021/10/06 06:26:50;;;;;;;9.10;2.40;;;;;;;;;;5118976;27;20283;-61
2021/10/06 06:29:18;;;;;;;2.37;1.67;;;;;;;;;;5120384;27;20215;-61
2021/10/06 06:31:46;;;;;;;3.80;2.77;;;;;;;;;;5120262;28;20222;-61
2021/10/06 06:34:16;;;;;;;5.00;1.97;;;;;;;;;;5120121;28;20235;-61
2021/10/06 06:36:44;;;;;;;4.07;2.00;;;;;;;;;;5119999;28;20571;-61
2021/10/06 06:39:12;;;;;;;6.37;1.83;;;;;;;;;;5119988;28;20204;-61
2021/10/06 06:41:39;;;;;;;3.40;1.63;;;;;;;;;;5119384;28;20548;-61
2021/10/06 06:44:07;;;;;;;3.43;1.73;;;;;;;;;;5120029;27;20652;-61
2021/10/06 06:46:36;;;;;;;1.83;1.43;;;;;;;;;;5119760;28;20221;-61
2021/10/06 06:49:04;;;;;;;6.87;4.33;;;;;;;;;;5119926;28;20571;-61
2021/10/06 06:51:34;;;;;;;6.87;2.27;;;;;;;;;;5119553;28;20229;-61
2021/10/06 06:54:03;;;;;;;4.37;1.70;;;;;;;;;;5119868;28;20273;-61
2021/10/06 06:56:32;;;;;;;3.47;1.47;;;;;;;;;;5119106;28;20543;-61
2021/10/06 06:59:00;;;;;;;5.77;1.73;;;;;;;;;;5119834;28;20211;-61
2021/10/06 07:01:28;;;;;;;5.43;1.47;;;;;;;;;;5119915;28;20207;-61
2021/10/06 07:03:56;;;;;;;5.03;1.73;;;;;;;;;;5119787;28;20281;-61
2021/10/06 07:06:25;;;;;;;5.70;2.07;;;;;;;;;;5119675;27;20221;-61
2021/10/06 07:08:54;;;;;;;5.57;1.60;;;;;;;;;;5119449;28;20736;-61
2021/10/06 07:11:22;;;;;;;6.50;1.90;;;;;;;;;;5119493;28;20213;-61
2021/10/06 07:13:50;;;;;;;4.97;2.30;;;;;;;;;;5119265;28;20228;-61
2021/10/06 07:16:18;;;;;;;4.17;2.00;;;;;;;;;;5119493;28;20197;-61
2021/10/06 07:18:46;;;;;;;6.23;1.80;;;;;;;;;;5119471;28;20209;-61
2021/10/06 07:21:14;;;;;;;5.30;1.80;;;;;;;;;;5119621;28;20201;-61
2021/10/06 07:23:42;;;;;;;9.67;2.03;;;;;;;;;;5119209;28;20699;-61
2021/10/06 07:26:12;;;;;;;3.97;1.90;;;;;;;;;;5118920;28;20725;-61
2021/10/06 07:28:44;;;;;;;6.47;2.20;;;;;;;;;;5119315;28;20212;-61
2021/10/06 07:31:12;;;;;;;2.43;1.57;;;;;;;;;;5119001;28;20205;-61
2021/10/06 07:33:40;;;;;;;4.23;1.43;;;;;;;;;;5119097;28;20665;-61
2021/10/06 07:36:08;;;;;;;8.43;1.77;;;;;;;;;;5119266;28;20197;-61
2021/10/06 07:38:36;;;;;;;6.10;1.90;;;;;;;;;;5118669;28;20211;-61
2021/10/06 07:41:04;;;;;;;6.17;2.33;;;;;;;;;;5118894;28;20687;-61
2021/10/06 07:43:34;;;;;;;5.10;1.57;;;;;;;;;;5118965;28;20205;-61
2021/10/06 07:46:02;;;;;;;6.93;1.70;;;;;;;;;;5118599;28;20655;-61
2021/10/06 07:48:30;;;;;;;3.30;1.57;;;;;;;;;;5119125;28;20204;-61
2021/10/06 07:50:58;;;;;;;5.23;1.60;;;;;;;;;;5118567;28;20236;-61
2021/10/06 07:53:26;;;;;;;6.07;1.80;;;;;;;;;;5118527;28;20205;-61
2021/10/06 07:55:54;;;;;;;5.37;2.03;;;;;;;;;;5118365;28;20228;-61
2021/10/06 07:58:22;;;;;;;6.10;1.57;;;;;;;;;;5118991;28;20215;-61
2021/10/06 08:00:51;;;;;;;5.47;1.57;;;;;;;;;;5118408;28;20205;-61
2021/10/06 08:03:19;;;;;;;2.60;1.43;;;;;;;;;;5118531;28;20245;-61
2021/10/06 08:05:47;;;;;;;2.87;2.10;;;;;;;;;;5118394;28;20251;-61
2021/10/06 08:08:15;;;;;;;6.90;1.50;;;;;;;;;;5118728;28;20207;-61
2021/10/06 08:10:43;;;;;;;4.00;1.53;;;;;;;;;;5118436;28;20205;-61
2021/10/06 08:13:11;;;;;;;1.87;1.10;;;;;;;;;;5118682;28;20218;-61
2021/10/06 08:15:41;;;;;;;5.27;1.30;;;;;;;;;;5118538;28;20225;-61
2021/10/06 08:18:12;;;;;;;2.83;1.57;;;;;;;;;;5118273;28;20667;-61
2021/10/06 08:20:40;;;;;;;6.40;1.27;;;;;;;;;;5118548;27;20669;-61
2021/10/06 08:23:09;;;;;;;6.73;1.40;;;;;;;;;;5118517;28;20205;-61
2021/10/06 08:25:37;;;;;;;2.80;1.47;;;;;;;;;;5118312;28;20225;-61
2021/10/06 08:28:05;;;;;;;4.73;1.57;;;;;;;;;;5118070;28;20211;-61
2021/10/06 08:30:33;;;;;;;4.23;1.90;;;;;;;;;;5118230;28;20213;-61
2021/10/06 08:33:01;;;;;;;8.90;1.60;;;;;;;;;;5117822;28;20208;-60
2021/10/06 08:35:30;;;;;;;3.73;1.20;;;;;;;;;;5118039;28;20715;-61
2021/10/06 08:37:58;;;;;;;2.37;1.57;;;;;;;;;;5118198;28;20205;-61
2021/10/06 08:40:26;;;;;;;4.03;1.90;;;;;;;;;;5118379;28;20287;-61
2021/10/06 08:42:54;;;;;;;5.70;1.47;;;;;;;;;;5118094;28;20201;-61
2021/10/06 08:45:23;;;;;;;7.27;2.10;;;;;;;;;;5118216;28;20225;-62
2021/10/06 08:47:50;;;;;;;4.20;1.20;;;;;;;;;;5118010;28;20225;-60
2021/10/06 08:50:19;;;;;;;2.73;1.40;;;;;;;;;;5119474;28;20232;-60
2021/10/06 08:52:49;;;;;;;2.50;1.40;;;;;;;;;;5122319;28;20207;-59
2021/10/06 08:55:17;;;;;;;2.27;1.30;;;;;;;;;;5121880;28;20309;-59
2021/10/06 08:57:45;;;;;;;3.53;0.97;;;;;;;;;;5122001;28;20204;-60
2021/10/06 09:00:13;;;;;;;8.37;1.60;;;;;;;;;;5122468;28;20637;-60
2021/10/06 09:02:42;;;;;;;2.40;1.23;;;;;;;;;;5121868;28;20211;-60
2021/10/06 09:05:12;;;;;;;4.30;2.00;;;;;;;;;;5121806;28;20220;-60
2021/10/06 09:07:58;;;;;;;2.97;1.17;;;;;;;;;;5121746;28;20217;-60
2021/10/06 09:10:27;;;;;;;7.43;1.50;;;;;;;;;;5121996;28;20215;-60
2021/10/06 09:12:55;;;;;;;2.60;1.23;;;;;;;;;;5121776;28;20660;-61
2021/10/06 09:15:23;;;;;;;4.93;1.20;;;;;;;;;;5121745;28;20233;-60
2021/10/06 09:17:52;;;;;;;4.23;1.20;;;;;;;;;;5122792;28;20265;-60
2021/10/06 09:20:20;;;;;;;1.77;1.33;;;;;;;;;;5122898;28;20201;-62
2021/10/06 09:23:01;;;;;;;5.90;1.20;;;;;;;;;;5121793;28;20284;-61
2021/10/06 09:25:36;;;;;;;3.47;1.50;;;;;;;;;;5121481;28;20239;-61
2021/10/06 09:28:08;;;;;;;3.40;1.60;;;;;;;;;;5121503;28;20224;-61
2021/10/06 09:30:36;;;;;;;9.23;1.73;;;;;;;;;;5121647;28;20205;-61
2021/10/06 09:33:08;;;;;;;5.83;1.50;;;;;;;;;;5121617;28;20209;-60
2021/10/06 09:35:36;;;;;;;4.57;1.47;;;;;;;;;;5121669;28;20225;-60
2021/10/06 09:38:05;;;;;;;5.20;1.40;;;;;;;;;;5121178;28;20205;-61
2021/10/06 09:40:33;;;;;;;4.10;1.40;;;;;;;;;;5121225;28;20281;-60
2021/10/06 09:43:02;;;;;;;1.87;1.00;;;;;;;;;;5121526;28;20215;-60
2021/10/06 09:45:31;;;;;;;4.40;1.33;;;;;;;;;;5121462;28;20228;-62
2021/10/06 09:48:03;;;;;;;3.30;1.30;;;;;;;;;;5121235;28;20282;-62
2021/10/06 09:50:31;;;;;;;4.00;1.40;;;;;;;;;;5121107;28;20237;-61
2021/10/06 09:53:08;;;;;;;6.47;1.20;;;;;;;;;;5121611;28;20212;-60
2021/10/06 09:55:36;;;;;;;1.87;1.27;;;;;;;;;;5121541;28;20224;-60
2021/10/06 09:58:05;;;;;;;3.97;1.00;;;;;;;;;;5121587;28;20205;-61
2021/10/06 10:00:33;;;;;;;3.47;1.70;;;;;;;;;;5121121;28;20288;-61
2021/10/06 10:03:01;;;;;;;2.53;1.23;;;;;;;;;;5121039;28;20233;-62
2021/10/06 10:05:30;;;;;;;2.27;1.70;;;;;;;;;;5120672;28;20260;-60
2021/10/06 10:07:58;;;;;;;3.53;1.33;;;;;;;;;;5120720;28;20252;-61
2021/10/06 10:10:28;;;;;;;3.50;1.23;;;;;;;;;;5120746;28;20296;-61
2021/10/06 10:12:56;;;;;;;7.40;1.30;;;;;;;;;;5120478;28;20568;-61
2021/10/06 10:15:25;;;;;;;3.20;0.90;;;;;;;;;;5120489;28;20225;-60
2021/10/06 10:17:53;;;;;;;6.17;1.20;;;;;;;;;;5120466;27;20205;-61
2021/10/06 10:20:22;;;;;;;2.83;1.30;;;;;;;;;;5120747;28;20295;-60
2021/10/06 10:22:53;;;;;;;2.87;1.30;;;;;;;;;;5116963;28;20280;-60
2021/10/06 10:25:26;;;;;;;5.10;1.40;;;;;;;;;;5107984;28;20216;-61
2021/10/06 10:28:07;;;;;;;5.23;1.70;;;;;;;;;;5107965;28;20260;-62
2021/10/06 10:30:36;;;;;;;5.33;1.30;;;;;;;;;;5107934;28;20280;-61
2021/10/06 10:33:08;;;;;;;2.10;1.13;;;;;;;;;;5116131;28;20288;-61
2021/10/06 10:35:37;;;;;;;5.13;2.40;;;;;;;;;;5105559;28;20308;-61
2021/10/06 10:38:06;;;;;;;1.77;0.90;;;;;;;;;;5106911;28;20193;-61
2021/10/06 10:40:35;;;;;;;4.30;1.10;;;;;;;;;;5120292;28;20249;-62
2021/10/06 10:43:06;;;;;;;4.07;1.53;;;;;;;;;;5119891;28;20212;-61
2021/10/06 10:45:36;;;;;;;3.80;1.80;;;;;;;;;;5119653;28;20598;-61
2021/10/06 10:48:05;;;;;;;2.77;0.97;;;;;;;;;;5108653;28;20304;-59
2021/10/06 10:50:40;;;;;;;1.70;1.17;;;;;;;;;;5105941;28;20236;-59
2021/10/06 10:53:09;;;;;;;1.63;0.90;;;;;;;;;;5108819;28;20200;-61
2021/10/06 10:55:52;;;;;;;2.73;1.43;;;;;;;;;;5107811;28;20227;-60
2021/10/06 10:58:29;;;;;;;2.63;1.03;;;;;;;;;;5110651;28;20200;-61
2021/10/06 11:00:59;;;;;;;4.77;1.40;;;;;;;;;;5104033;28;20312;-60
2021/10/06 11:03:27;;;;;;;6.47;1.53;;;;;;;;;;5106638;28;20207;-61
2021/10/06 11:05:57;;;;;;;4.57;1.03;;;;;;;;;;5105248;28;20202;-61
2021/10/06 11:08:25;;;;;;;4.50;1.97;;;;;;;;;;5108647;28;20213;-61
2021/10/06 11:11:14;;;;;;;2.27;0.97;;;;;;;;;;5105613;28;20285;-59
2021/10/06 11:13:43;;;;;;;3.77;1.43;;;;;;;;;;5105380;28;20295;-59
2021/10/06 11:16:13;;;;;;;1.73;1.47;;;;;;;;;;5106912;28;20211;-58
2021/10/06 11:18:43;;;;;;;8.97;2.10;;;;;;;;;;5104153;28;20588;-59
2021/10/06 11:21:12;;;;;;;3.20;1.17;;;;;;;;;;5110763;28;20219;-59
2021/10/06 11:23:45;;;;;;;5.70;1.10;;;;;;;;;;5103827;28;20568;-59
2021/10/06 11:26:14;;;;;;;3.60;1.63;;;;;;;;;;5105624;28;20572;-60
2021/10/06 11:28:43;;;;;;;3.80;1.57;;;;;;;;;;5103535;28;20218;-60
2021/10/06 11:31:14;;;;;;;5.23;1.17;;;;;;;;;;5106560;28;20202;-59
2021/10/06 11:33:43;;;;;;;3.37;1.30;;;;;;;;;;5105064;28;20339;-59
2021/10/06 11:36:12;;;;;;;4.00;1.10;;;;;;;;;;5106605;28;20197;-63
2021/10/06 11:38:41;;;;;;;5.07;1.60;;;;;;;;;;5106348;28;20197;-59
2021/10/06 11:41:10;;;;;;;4.00;1.57;;;;;;;;;;5106571;28;20198;-59
2021/10/06 11:43:42;;;;;;;2.20;1.07;;;;;;;;;;5103050;28;20219;-59
2021/10/06 11:46:14;;;;;;;5.90;1.20;;;;;;;;;;5105535;28;20277;-59
2021/10/06 11:48:43;;;;;;;3.27;1.30;;;;;;;;;;5105571;28;20217;-60
2021/10/06 11:51:11;;;;;;;3.00;0.97;;;;;;;;;;5105234;28;20632;-60
2021/10/06 11:53:40;;;;;;;2.77;1.20;;;;;;;;;;5113355;28;20249;-61
2021/10/06 11:56:08;;;;;;;1.73;1.20;;;;;;;;;;5117206;28;20197;-60
2021/10/06 11:58:37;;;;;;;5.10;1.10;;;;;;;;;;5117523;28;20201;-60
2021/10/06 12:01:06;;;;;;;4.13;1.20;;;;;;;;;;5118320;28;20201;-60
2021/10/06 12:03:39;;;;;;;1.60;0.70;;;;;;;;;;5118760;28;20215;-60
2021/10/06 12:06:07;;;;;;;4.80;1.20;;;;;;;;;;5118200;28;20215;-60
2021/10/06 12:08:36;;;;;;;7.33;1.83;;;;;;;;;;5117829;28;20217;-60
2021/10/06 12:11:04;;;;;;;5.47;1.40;;;;;;;;;;5118387;28;20208;-60
2021/10/06 12:13:37;;;;;;;4.40;0.77;;;;;;;;;;5118362;28;20204;-60
2021/10/06 12:16:24;;;;;;;5.03;1.10;;;;;;;;;;5118496;28;20208;-60
2021/10/06 12:18:55;;;;;;;1.80;0.93;;;;;;;;;;5118505;28;20200;-60
2021/10/06 12:21:24;;;;;;;2.40;1.10;;;;;;;;;;5118452;28;20205;-60
2021/10/06 12:23:52;;;;;;;4.83;1.23;;;;;;;;;;5117666;28;20221;-60
2021/10/06 12:26:21;;;;;;;2.70;0.90;;;;;;;;;;5124127;27;20214;-60
2021/10/06 12:28:52;;;;;;;1.97;0.90;;;;;;;;;;5138881;27;20220;-60
2021/10/06 12:31:28;;;;;;;5.30;1.40;;;;;;;;;;5138850;27;20208;-60
2021/10/06 12:34:11;;;;;;;2.30;0.93;;;;;;;;;;5138471;27;20623;-60
2021/10/06 12:36:45;;;;;;;2.37;1.20;;;;;;;;;;5138500;27;20567;-60
2021/10/06 12:39:15;;;;;;;3.10;1.40;;;;;;;;;;5138962;27;20206;-60
2021/10/06 12:41:44;;;;;;;1.40;0.70;;;;;;;;;;5138455;27;20250;-60
2021/10/06 12:44:16;;;;;;;1.40;0.90;;;;;;;;;;5138764;27;20224;-60
2021/10/06 12:46:44;;;;;;;3.87;1.00;;;;;;;;;;5138991;27;20208;-60
2021/10/06 12:49:14;;;;;;;1.60;1.20;;;;;;;;;;5135867;27;20745;-60
2021/10/06 12:51:43;;;;;;;2.20;1.00;;;;;;;;;;5118090;28;20237;-60
2021/10/06 12:54:16;;;;;;;3.27;1.17;;;;;;;;;;5118033;28;20680;-61
2021/10/06 12:56:50;;;;;;;1.37;0.73;;;;;;;;;;5117979;28;20211;-60
2021/10/06 12:59:18;;;;;;;4.33;1.10;;;;;;;;;;5117990;28;20283;-60
2021/10/06 13:01:47;;;;;;;1.03;0.80;;;;;;;;;;5117657;28;20625;-60
2021/10/06 13:04:17;;;;;;;9.33;1.30;;;;;;;;;;5117706;28;20311;-60
2021/10/06 13:06:45;;;;;;;1.10;0.77;;;;;;;;;;5118411;28;20240;-61
2021/10/06 13:09:14;;;;;;;3.60;1.10;;;;;;;;;;5117791;28;20762;-60
2021/10/06 13:11:42;;;;;;;5.07;1.57;;;;;;;;;;5117713;28;20278;-60
2021/10/06 13:14:11;;;;;;;2.53;0.80;;;;;;;;;;5117894;28;20683;-60
2021/10/06 13:16:39;;;;;;;4.13;1.10;;;;;;;;;;5117986;28;20209;-60
2021/10/06 13:19:09;;;;;;;1.80;0.93;;;;;;;;;;5118246;28;20268;-60
2021/10/06 13:21:39;;;;;;;3.03;0.80;;;;;;;;;;5117795;28;20204;-60
2021/10/06 13:24:07;;;;;;;1.43;1.33;;;;;;;;;;5117731;28;20231;-60
2021/10/06 13:26:35;;;;;;;2.13;1.13;;;;;;;;;;5111689;28;20198;-60
2021/10/06 13:29:04;;;;;;;1.30;1.10;;;;;;;;;;5117448;28;20231;-60
2021/10/06 13:31:32;;;;;;;3.30;1.23;;;;;;;;;;5117266;28;20610;-60
2021/10/06 13:34:01;;;;;;;3.80;1.13;;;;;;;;;;5117181;28;20225;-61
2021/10/06 13:36:28;;;;;;;3.10;0.90;;;;;;;;;;5118513;28;20569;-61
2021/10/06 13:38:58;;;;;;;0.97;0.70;;;;;;;;;;5121831;27;20281;-61
2021/10/06 13:41:26;;;;;;;4.00;0.97;;;;;;;;;;5121714;28;20209;-61
2021/10/06 13:43:54;;;;;;;4.33;1.07;;;;;;;;;;5120683;28;20220;-61
2021/10/06 13:46:22;;;;;;;1.93;0.70;;;;;;;;;;5140978;27;20207;-60
2021/10/06 13:48:50;;;;;;;3.27;1.00;;;;;;;;;;5142127;27;20259;-60
2021/10/06 13:51:19;;;;;;;4.67;1.13;;;;;;;;;;5120953;27;20266;-61
2021/10/06 13:53:48;;;;;;;3.33;1.03;;;;;;;;;;5121066;27;20254;-61
2021/10/06 13:56:18;;;;;;;2.73;1.13;;;;;;;;;;5120494;28;20205;-61
2021/10/06 13:58:46;;;;;;;3.40;1.30;;;;;;;;;;5121188;28;20358;-61
2021/10/06 14:01:14;;;;;;;0.73;0.70;;;;;;;;;;5120754;28;20764;-60
2021/10/06 14:03:42;;;;;;;4.50;1.07;;;;;;;;;;5120576;28;20289;-61
2021/10/06 14:06:10;;;;;;;4.50;1.60;;;;;;;;;;5120797;28;20207;-60
2021/10/06 14:08:38;;;;;;;3.53;0.90;;;;;;;;;;5120661;28;20264;-60
2021/10/06 14:11:06;;;;;;;2.80;1.23;;;;;;;;;;5115755;28;20201;-64
2021/10/06 14:13:37;;;;;;;5.40;1.70;;;;;;;;;;5129818;27;20197;-64
2021/10/06 14:16:06;;;;;;;0.83;0.83;;;;;;;;;;5113421;28;20208;-64
2021/10/06 14:18:34;;;;;;;3.03;1.50;;;;;;;;;;5131895;27;20242;-65
2021/10/06 14:21:03;;;;;;;1.00;0.70;;;;;;;;;;5126238;27;20650;-65
2021/10/06 14:23:31;;;;;;;4.13;1.30;;;;;;;;;;5120244;28;20272;-65
2021/10/06 14:25:59;;;;;;;2.90;1.10;;;;;;;;;;5120006;28;20197;-63
2021/10/06 14:28:27;;;;;;;5.43;1.17;;;;;;;;;;5119245;27;20208;-65
2021/10/06 14:30:57;;;;;;;3.63;1.20;;;;;;;;;;5140774;27;20238;-65
2021/10/06 14:33:26;;;;;;;3.13;1.20;;;;;;;;;;5124529;27;20236;-65
2021/10/06 14:35:54;;;;;;;2.33;0.93;;;;;;;;;;5120250;28;20205;-65
2021/10/06 14:38:22;;;;;;;3.33;1.07;;;;;;;;;;5120497;28;20228;-67
2021/10/06 14:40:50;;;;;;;5.03;1.40;;;;;;;;;;5119725;28;20254;-62
2021/10/06 14:43:18;;;;;;;3.33;1.57;;;;;;;;;;5119735;28;20749;-63
2021/10/06 14:45:46;;;;;;;6.63;2.23;;;;;;;;;;5119307;28;20224;-63
2021/10/06 14:48:16;;;;;;;1.47;1.10;;;;;;;;;;5120669;28;20212;-63
2021/10/06 14:50:44;;;;;;;4.10;1.53;;;;;;;;;;5111630;28;20257;-65
2021/10/06 14:53:12;;;;;;;6.00;1.93;;;;;;;;;;5108522;28;20213;-64